الصفحة الرئيسية
METAR-TAF:

METAR-TAF

مطار :

سيماي, كازاخستان

دائرة عرض: 50-21-05N, خط طول: 080-14-04E, ارتفاع: 232 متر

مراقبة الطقس الحالي

تاريخ ووقت الإصدار 16 دقيقة قبل الساعة 02:00UTC
ريح 16 عقدة من الغرب/الشمال الغربي
درجة الحرارة 6°درجة مئوية
الرطوبة 70%
ضغط 1024 hPa
الرؤية 10 كم أو أكثر
غيوم متفرقة على ارتفاع 4000 قدم
غيوم مفككة على ارتفاع 10000 قدم

METAR: UASS 240200Z 30008MPS 9999 SCT040 BKN100 06/01 Q1024 NOSIG RMK QFE750/1000

زمن: 08:16 (02:16 UTC)

توقعات

تاريخ ووقت الإصدار 12ساعات و 22 دقيقة قبل الساعة 13:54UTC
التوقعات صالحة من23 الساعة 15 UTC إلى 23 الساعة 24 UTC
ريح 19 عقدة من الغرب تتزايد حتى 29 عقدة
الرؤية 10 كم أو أكثر
غيوم مفككة على ارتفاع 600 قدم
ملبد بالغيوم على ارتفاع 2000 قدم
مؤقت
من 23 الساعة 15 UTC إلى 23 الساعة 21 UTC
ريح 16 عقدة من الشمال/الشمال الغربي تتزايد حتى 25 عقدة
الرؤية: 2000 متر
ملبد بالغيوم على ارتفاع 1000 قدم, مزنة ركامية.
زخات من المطر

TAF: UASS 231354Z 2315/2324 27010G15MPS 9999 BKN006 OVC020 TEMPO 2315/2321 33008G13MPS 2000 SHRA OVC010CB

أرصاد الطقس والتوقعات من أكثر من 4000 مطار (تقارير الطقس للمطار METAR والتنبؤ بالطقس بالمطارTAF).

المحطات المتاحة هي النقط الصفراء والحمراء على الخريطة.

حرك المؤشر فوق النقطة لمعرفة اسم المحطة.

ثم انقر لمعرفة أرصاد وتوقعات الطقس.

لتغيير الخارطة: اضغط على الأزرار الخضراء مع رمز الصليب الأسود للتكبير. على الزر الأخضر مع شرطة للتصغير، أو على الأسهم الخضراء للخرائط المجاورة.


METAR-TAF: